sensor_id;sensor_type;location;lat;lon;timestamp;P1;durP1;ratioP1;P2;durP2;ratioP2
13173;SDS011;6652;48.802;9.190;2023-02-28T00:00:49;4.97;;;2.50;;
13173;SDS011;6652;48.802;9.190;2023-02-28T00:03:16;3.45;;;2.08;;
13173;SDS011;6652;48.802;9.190;2023-02-28T00:05:43;3.05;;;1.83;;
13173;SDS011;6652;48.802;9.190;2023-02-28T00:08:10;5.53;;;2.40;;
13173;SDS011;6652;48.802;9.190;2023-02-28T00:10:38;5.63;;;2.05;;
13173;SDS011;6652;48.802;9.190;2023-02-28T00:13:06;8.20;;;2.15;;
13173;SDS011;6652;48.802;9.190;2023-02-28T00:15:33;4.95;;;2.45;;
13173;SDS011;6652;48.802;9.190;2023-02-28T00:18:00;6.72;;;2.50;;
13173;SDS011;6652;48.802;9.190;2023-02-28T00:20:27;4.28;;;2.35;;
13173;SDS011;6652;48.802;9.190;2023-02-28T00:22:54;4.82;;;2.58;;
13173;SDS011;6652;48.802;9.190;2023-02-28T00:25:22;6.38;;;2.75;;
13173;SDS011;6652;48.802;9.190;2023-02-28T00:27:50;9.07;;;3.00;;
13173;SDS011;6652;48.802;9.190;2023-02-28T00:30:19;6.35;;;2.60;;
13173;SDS011;6652;48.802;9.190;2023-02-28T00:32:48;6.82;;;2.85;;
13173;SDS011;6652;48.802;9.190;2023-02-28T00:35:15;3.92;;;2.30;;
13173;SDS011;6652;48.802;9.190;2023-02-28T00:37:42;5.93;;;2.50;;
13173;SDS011;6652;48.802;9.190;2023-02-28T00:40:09;9.45;;;2.65;;
13173;SDS011;6652;48.802;9.190;2023-02-28T00:42:37;5.32;;;2.67;;
13173;SDS011;6652;48.802;9.190;2023-02-28T00:45:05;7.00;;;2.60;;
13173;SDS011;6652;48.802;9.190;2023-02-28T00:47:34;5.57;;;2.38;;
13173;SDS011;6652;48.802;9.190;2023-02-28T00:50:01;5.93;;;2.42;;
13173;SDS011;6652;48.802;9.190;2023-02-28T00:52:28;6.90;;;2.78;;
13173;SDS011;6652;48.802;9.190;2023-02-28T00:54:55;5.50;;;2.70;;
13173;SDS011;6652;48.802;9.190;2023-02-28T00:57:22;5.05;;;2.13;;
13173;SDS011;6652;48.802;9.190;2023-02-28T00:59:49;6.30;;;2.80;;
13173;SDS011;6652;48.802;9.190;2023-02-28T01:02:16;6.00;;;2.67;;
13173;SDS011;6652;48.802;9.190;2023-02-28T01:04:46;5.50;;;2.72;;
13173;SDS011;6652;48.802;9.190;2023-02-28T01:07:13;4.28;;;2.58;;
13173;SDS011;6652;48.802;9.190;2023-02-28T01:09:40;7.05;;;3.05;;
13173;SDS011;6652;48.802;9.190;2023-02-28T01:12:08;4.22;;;2.60;;
13173;SDS011;6652;48.802;9.190;2023-02-28T01:14:35;6.28;;;2.70;;
13173;SDS011;6652;48.802;9.190;2023-02-28T01:17:02;6.97;;;2.78;;
13173;SDS011;6652;48.802;9.190;2023-02-28T01:19:29;9.00;;;3.22;;
13173;SDS011;6652;48.802;9.190;2023-02-28T01:21:57;7.88;;;2.72;;
13173;SDS011;6652;48.802;9.190;2023-02-28T01:24:26;8.10;;;2.85;;
13173;SDS011;6652;48.802;9.190;2023-02-28T01:26:53;9.63;;;2.97;;
13173;SDS011;6652;48.802;9.190;2023-02-28T01:29:20;6.22;;;3.03;;
13173;SDS011;6652;48.802;9.190;2023-02-28T01:31:47;6.43;;;2.88;;
13173;SDS011;6652;48.802;9.190;2023-02-28T01:34:14;9.57;;;3.67;;
13173;SDS011;6652;48.802;9.190;2023-02-28T01:36:41;7.25;;;2.90;;
13173;SDS011;6652;48.802;9.190;2023-02-28T01:39:09;5.15;;;3.03;;
13173;SDS011;6652;48.802;9.190;2023-02-28T01:41:37;9.60;;;3.25;;
13173;SDS011;6652;48.802;9.190;2023-02-28T01:44:06;7.68;;;3.35;;
13173;SDS011;6652;48.802;9.190;2023-02-28T01:46:53;9.63;;;3.47;;
13173;SDS011;6652;48.802;9.190;2023-02-28T01:49:20;9.40;;;3.92;;
13173;SDS011;6652;48.802;9.190;2023-02-28T01:51:48;12.32;;;3.50;;
13173;SDS011;6652;48.802;9.190;2023-02-28T01:54:22;6.90;;;3.42;;
13173;SDS011;6652;48.802;9.190;2023-02-28T01:56:53;7.78;;;3.50;;
13173;SDS011;6652;48.802;9.190;2023-02-28T01:59:24;9.60;;;3.70;;
13173;SDS011;6652;48.802;9.190;2023-02-28T02:01:55;9.67;;;3.60;;
13173;SDS011;6652;48.802;9.190;2023-02-28T02:04:22;6.47;;;3.47;;
13173;SDS011;6652;48.802;9.190;2023-02-28T02:06:52;10.13;;;4.50;;
13173;SDS011;6652;48.802;9.190;2023-02-28T02:09:21;16.48;;;4.15;;
13173;SDS011;6652;48.802;9.190;2023-02-28T02:11:48;7.13;;;3.60;;
13173;SDS011;6652;48.802;9.190;2023-02-28T02:14:27;10.35;;;4.55;;
13173;SDS011;6652;48.802;9.190;2023-02-28T02:17:15;7.38;;;3.75;;
13173;SDS011;6652;48.802;9.190;2023-02-28T02:20:00;6.47;;;3.50;;
13173;SDS011;6652;48.802;9.190;2023-02-28T02:26:06;7.00;;;3.80;;
13173;SDS011;6652;48.802;9.190;2023-02-28T02:31:55;6.32;;;3.15;;
13173;SDS011;6652;48.802;9.190;2023-02-28T02:34:49;6.10;;;3.45;;
13173;SDS011;6652;48.802;9.190;2023-02-28T02:37:24;9.68;;;4.25;;
13173;SDS011;6652;48.802;9.190;2023-02-28T02:40:00;7.70;;;3.30;;
13173;SDS011;6652;48.802;9.190;2023-02-28T02:42:36;11.80;;;4.38;;
13173;SDS011;6652;48.802;9.190;2023-02-28T02:45:08;7.20;;;4.18;;
13173;SDS011;6652;48.802;9.190;2023-02-28T02:47:38;7.18;;;3.97;;
13173;SDS011;6652;48.802;9.190;2023-02-28T02:50:08;7.40;;;3.97;;
13173;SDS011;6652;48.802;9.190;2023-02-28T02:52:40;8.80;;;3.83;;
13173;SDS011;6652;48.802;9.190;2023-02-28T02:55:11;6.30;;;3.63;;
13173;SDS011;6652;48.802;9.190;2023-02-28T02:57:42;11.27;;;4.38;;
13173;SDS011;6652;48.802;9.190;2023-02-28T03:00:16;7.43;;;3.67;;
13173;SDS011;6652;48.802;9.190;2023-02-28T03:02:46;7.57;;;3.95;;
13173;SDS011;6652;48.802;9.190;2023-02-28T03:05:17;6.32;;;4.03;;
13173;SDS011;6652;48.802;9.190;2023-02-28T03:07:47;9.73;;;4.10;;
13173;SDS011;6652;48.802;9.190;2023-02-28T03:10:27;10.88;;;4.32;;
13173;SDS011;6652;48.802;9.190;2023-02-28T03:13:00;10.50;;;4.22;;
13173;SDS011;6652;48.802;9.190;2023-02-28T03:15:57;7.80;;;4.10;;
13173;SDS011;6652;48.802;9.190;2023-02-28T03:18:33;7.72;;;4.00;;
13173;SDS011;6652;48.802;9.190;2023-02-28T03:21:10;6.25;;;3.70;;
13173;SDS011;6652;48.802;9.190;2023-02-28T03:23:48;6.25;;;3.55;;
13173;SDS011;6652;48.802;9.190;2023-02-28T03:26:22;6.60;;;3.75;;
13173;SDS011;6652;48.802;9.190;2023-02-28T03:28:53;8.93;;;4.57;;
13173;SDS011;6652;48.802;9.190;2023-02-28T03:31:27;11.48;;;4.53;;
13173;SDS011;6652;48.802;9.190;2023-02-28T03:33:59;10.40;;;4.57;;
13173;SDS011;6652;48.802;9.190;2023-02-28T03:36:36;11.73;;;4.50;;
13173;SDS011;6652;48.802;9.190;2023-02-28T03:39:09;9.25;;;4.30;;
13173;SDS011;6652;48.802;9.190;2023-02-28T03:41:42;7.32;;;4.00;;
13173;SDS011;6652;48.802;9.190;2023-02-28T03:44:13;10.70;;;4.45;;
13173;SDS011;6652;48.802;9.190;2023-02-28T03:46:45;8.48;;;4.35;;
13173;SDS011;6652;48.802;9.190;2023-02-28T03:49:17;8.57;;;4.18;;
13173;SDS011;6652;48.802;9.190;2023-02-28T03:51:49;6.77;;;4.43;;
13173;SDS011;6652;48.802;9.190;2023-02-28T03:54:19;8.35;;;4.63;;
13173;SDS011;6652;48.802;9.190;2023-02-28T03:56:50;7.97;;;4.70;;
13173;SDS011;6652;48.802;9.190;2023-02-28T03:59:22;9.77;;;4.80;;
13173;SDS011;6652;48.802;9.190;2023-02-28T04:01:52;9.27;;;4.67;;
13173;SDS011;6652;48.802;9.190;2023-02-28T04:04:20;9.40;;;4.55;;
13173;SDS011;6652;48.802;9.190;2023-02-28T04:06:50;8.70;;;5.03;;
13173;SDS011;6652;48.802;9.190;2023-02-28T04:09:26;10.23;;;5.40;;
13173;SDS011;6652;48.802;9.190;2023-02-28T04:11:53;9.45;;;4.93;;
13173;SDS011;6652;48.802;9.190;2023-02-28T04:14:21;9.45;;;4.68;;
13173;SDS011;6652;48.802;9.190;2023-02-28T04:16:48;9.00;;;4.25;;
13173;SDS011;6652;48.802;9.190;2023-02-28T04:19:16;12.57;;;4.95;;
13173;SDS011;6652;48.802;9.190;2023-02-28T04:21:44;11.27;;;4.75;;
13173;SDS011;6652;48.802;9.190;2023-02-28T04:24:14;8.85;;;5.00;;
13173;SDS011;6652;48.802;9.190;2023-02-28T04:26:42;13.05;;;5.07;;
13173;SDS011;6652;48.802;9.190;2023-02-28T04:29:11;11.18;;;4.95;;
13173;SDS011;6652;48.802;9.190;2023-02-28T04:31:39;10.93;;;5.00;;
13173;SDS011;6652;48.802;9.190;2023-02-28T04:34:06;9.38;;;4.55;;
13173;SDS011;6652;48.802;9.190;2023-02-28T04:36:33;10.90;;;4.70;;
13173;SDS011;6652;48.802;9.190;2023-02-28T04:38:59;7.55;;;4.38;;
13173;SDS011;6652;48.802;9.190;2023-02-28T04:41:28;14.07;;;5.25;;
13173;SDS011;6652;48.802;9.190;2023-02-28T04:43:54;8.52;;;5.40;;
13173;SDS011;6652;48.802;9.190;2023-02-28T04:46:22;10.93;;;5.38;;
13173;SDS011;6652;48.802;9.190;2023-02-28T04:48:49;8.40;;;5.13;;
13173;SDS011;6652;48.802;9.190;2023-02-28T04:51:16;12.48;;;5.47;;
13173;SDS011;6652;48.802;9.190;2023-02-28T04:53:44;8.10;;;4.78;;
13173;SDS011;6652;48.802;9.190;2023-02-28T04:56:12;9.07;;;4.57;;
13173;SDS011;6652;48.802;9.190;2023-02-28T04:58:42;10.95;;;5.07;;
13173;SDS011;6652;48.802;9.190;2023-02-28T05:01:15;9.63;;;5.00;;
13173;SDS011;6652;48.802;9.190;2023-02-28T05:03:44;12.73;;;5.15;;
13173;SDS011;6652;48.802;9.190;2023-02-28T05:06:12;9.93;;;5.60;;
13173;SDS011;6652;48.802;9.190;2023-02-28T05:08:39;11.45;;;4.75;;
13173;SDS011;6652;48.802;9.190;2023-02-28T05:11:07;11.63;;;5.53;;
13173;SDS011;6652;48.802;9.190;2023-02-28T05:13:42;10.52;;;5.45;;
13173;SDS011;6652;48.802;9.190;2023-02-28T05:16:08;13.63;;;5.45;;
13173;SDS011;6652;48.802;9.190;2023-02-28T05:18:35;19.40;;;6.40;;
13173;SDS011;6652;48.802;9.190;2023-02-28T05:21:02;12.85;;;5.57;;
13173;SDS011;6652;48.802;9.190;2023-02-28T05:23:29;9.15;;;4.93;;
13173;SDS011;6652;48.802;9.190;2023-02-28T05:25:56;9.75;;;5.78;;
13173;SDS011;6652;48.802;9.190;2023-02-28T05:28:23;8.88;;;5.13;;
13173;SDS011;6652;48.802;9.190;2023-02-28T05:30:51;12.32;;;5.55;;
13173;SDS011;6652;48.802;9.190;2023-02-28T05:33:18;10.95;;;5.82;;
13173;SDS011;6652;48.802;9.190;2023-02-28T05:35:45;14.77;;;6.25;;
13173;SDS011;6652;48.802;9.190;2023-02-28T05:38:11;8.68;;;5.32;;
13173;SDS011;6652;48.802;9.190;2023-02-28T05:40:38;9.18;;;4.65;;
13173;SDS011;6652;48.802;9.190;2023-02-28T05:43:05;7.18;;;5.18;;
13173;SDS011;6652;48.802;9.190;2023-02-28T05:45:34;11.55;;;6.00;;
13173;SDS011;6652;48.802;9.190;2023-02-28T05:48:02;10.93;;;6.05;;
13173;SDS011;6652;48.802;9.190;2023-02-28T05:50:29;11.90;;;6.38;;
13173;SDS011;6652;48.802;9.190;2023-02-28T05:52:56;12.27;;;5.90;;
13173;SDS011;6652;48.802;9.190;2023-02-28T05:55:23;10.85;;;6.47;;
13173;SDS011;6652;48.802;9.190;2023-02-28T05:57:50;9.88;;;5.43;;
13173;SDS011;6652;48.802;9.190;2023-02-28T06:00:17;13.00;;;5.97;;
13173;SDS011;6652;48.802;9.190;2023-02-28T06:02:44;11.27;;;5.97;;
13173;SDS011;6652;48.802;9.190;2023-02-28T06:05:14;11.07;;;6.00;;
13173;SDS011;6652;48.802;9.190;2023-02-28T06:07:42;12.60;;;6.15;;
13173;SDS011;6652;48.802;9.190;2023-02-28T06:10:10;13.70;;;6.32;;
13173;SDS011;6652;48.802;9.190;2023-02-28T06:12:38;9.55;;;5.10;;
13173;SDS011;6652;48.802;9.190;2023-02-28T06:15:07;14.13;;;5.93;;
13173;SDS011;6652;48.802;9.190;2023-02-28T06:17:37;13.70;;;6.07;;
13173;SDS011;6652;48.802;9.190;2023-02-28T06:20:04;10.07;;;6.22;;
13173;SDS011;6652;48.802;9.190;2023-02-28T06:22:34;10.63;;;6.43;;
13173;SDS011;6652;48.802;9.190;2023-02-28T06:25:01;13.45;;;6.85;;
13173;SDS011;6652;48.802;9.190;2023-02-28T06:27:28;12.65;;;6.60;;
13173;SDS011;6652;48.802;9.190;2023-02-28T06:29:56;13.77;;;5.70;;
13173;SDS011;6652;48.802;9.190;2023-02-28T06:32:23;17.30;;;7.00;;
13173;SDS011;6652;48.802;9.190;2023-02-28T06:34:50;12.25;;;6.32;;
13173;SDS011;6652;48.802;9.190;2023-02-28T06:37:17;11.88;;;6.60;;
13173;SDS011;6652;48.802;9.190;2023-02-28T06:39:45;11.25;;;6.47;;
13173;SDS011;6652;48.802;9.190;2023-02-28T06:42:11;13.00;;;6.80;;
13173;SDS011;6652;48.802;9.190;2023-02-28T06:44:38;12.88;;;6.32;;
13173;SDS011;6652;48.802;9.190;2023-02-28T06:47:05;20.50;;;6.53;;
13173;SDS011;6652;48.802;9.190;2023-02-28T06:49:33;14.55;;;7.00;;
13173;SDS011;6652;48.802;9.190;2023-02-28T06:52:00;14.48;;;6.80;;
13173;SDS011;6652;48.802;9.190;2023-02-28T06:54:28;13.10;;;7.10;;
13173;SDS011;6652;48.802;9.190;2023-02-28T06:56:56;12.73;;;7.22;;
13173;SDS011;6652;48.802;9.190;2023-02-28T06:59:23;9.95;;;6.10;;
13173;SDS011;6652;48.802;9.190;2023-02-28T07:01:50;10.70;;;6.60;;
13173;SDS011;6652;48.802;9.190;2023-02-28T07:04:17;14.68;;;6.82;;
13173;SDS011;6652;48.802;9.190;2023-02-28T07:06:44;13.55;;;6.32;;
13173;SDS011;6652;48.802;9.190;2023-02-28T07:09:10;18.55;;;7.10;;
13173;SDS011;6652;48.802;9.190;2023-02-28T07:11:39;11.45;;;6.65;;
13173;SDS011;6652;48.802;9.190;2023-02-28T07:14:09;22.10;;;8.60;;
13173;SDS011;6652;48.802;9.190;2023-02-28T07:16:35;14.77;;;7.45;;
13173;SDS011;6652;48.802;9.190;2023-02-28T07:19:02;11.52;;;6.70;;
13173;SDS011;6652;48.802;9.190;2023-02-28T07:21:29;15.25;;;6.68;;
13173;SDS011;6652;48.802;9.190;2023-02-28T07:23:56;13.20;;;7.30;;
13173;SDS011;6652;48.802;9.190;2023-02-28T07:26:23;17.05;;;6.90;;
13173;SDS011;6652;48.802;9.190;2023-02-28T07:28:49;14.68;;;7.45;;
13173;SDS011;6652;48.802;9.190;2023-02-28T07:31:18;14.82;;;6.60;;
13173;SDS011;6652;48.802;9.190;2023-02-28T07:33:45;13.32;;;6.22;;
13173;SDS011;6652;48.802;9.190;2023-02-28T07:36:12;15.57;;;6.88;;
13173;SDS011;6652;48.802;9.190;2023-02-28T07:38:41;19.85;;;7.80;;
13173;SDS011;6652;48.802;9.190;2023-02-28T07:41:08;19.02;;;7.65;;
13173;SDS011;6652;48.802;9.190;2023-02-28T07:43:36;13.02;;;7.28;;
13173;SDS011;6652;48.802;9.190;2023-02-28T07:46:03;15.27;;;7.13;;
13173;SDS011;6652;48.802;9.190;2023-02-28T07:48:32;15.95;;;7.10;;
13173;SDS011;6652;48.802;9.190;2023-02-28T07:50:59;11.80;;;6.55;;
13173;SDS011;6652;48.802;9.190;2023-02-28T07:53:26;22.45;;;7.78;;
13173;SDS011;6652;48.802;9.190;2023-02-28T07:55:54;13.50;;;7.68;;
13173;SDS011;6652;48.802;9.190;2023-02-28T07:58:22;18.00;;;7.13;;
13173;SDS011;6652;48.802;9.190;2023-02-28T08:00:49;16.27;;;8.23;;
13173;SDS011;6652;48.802;9.190;2023-02-28T08:03:16;15.63;;;8.20;;
13173;SDS011;6652;48.802;9.190;2023-02-28T08:05:45;13.13;;;6.93;;
13173;SDS011;6652;48.802;9.190;2023-02-28T08:08:13;16.08;;;7.72;;
13173;SDS011;6652;48.802;9.190;2023-02-28T08:10:40;13.15;;;7.40;;
13173;SDS011;6652;48.802;9.190;2023-02-28T08:13:07;15.45;;;7.38;;
13173;SDS011;6652;48.802;9.190;2023-02-28T08:15:33;18.48;;;7.53;;
13173;SDS011;6652;48.802;9.190;2023-02-28T08:18:02;16.98;;;8.27;;
13173;SDS011;6652;48.802;9.190;2023-02-28T08:20:29;16.17;;;7.80;;
13173;SDS011;6652;48.802;9.190;2023-02-28T08:22:58;18.30;;;8.02;;
13173;SDS011;6652;48.802;9.190;2023-02-28T08:25:24;15.05;;;7.97;;
13173;SDS011;6652;48.802;9.190;2023-02-28T08:27:51;14.63;;;8.75;;
13173;SDS011;6652;48.802;9.190;2023-02-28T08:30:18;13.48;;;8.00;;
13173;SDS011;6652;48.802;9.190;2023-02-28T08:32:45;24.48;;;8.38;;
13173;SDS011;6652;48.802;9.190;2023-02-28T08:35:12;15.25;;;7.93;;
13173;SDS011;6652;48.802;9.190;2023-02-28T08:37:38;13.77;;;7.82;;
13173;SDS011;6652;48.802;9.190;2023-02-28T08:40:07;15.02;;;8.30;;
13173;SDS011;6652;48.802;9.190;2023-02-28T08:42:38;13.02;;;8.13;;
13173;SDS011;6652;48.802;9.190;2023-02-28T08:45:06;15.82;;;8.27;;
13173;SDS011;6652;48.802;9.190;2023-02-28T08:47:33;15.05;;;8.73;;
13173;SDS011;6652;48.802;9.190;2023-02-28T08:50:00;16.25;;;8.25;;
13173;SDS011;6652;48.802;9.190;2023-02-28T08:52:26;10.43;;;6.65;;
13173;SDS011;6652;48.802;9.190;2023-02-28T08:54:53;14.77;;;8.60;;
13173;SDS011;6652;48.802;9.190;2023-02-28T08:57:24;19.95;;;9.32;;
13173;SDS011;6652;48.802;9.190;2023-02-28T08:59:52;21.05;;;9.65;;
13173;SDS011;6652;48.802;9.190;2023-02-28T09:02:19;18.42;;;8.88;;
13173;SDS011;6652;48.802;9.190;2023-02-28T09:04:46;20.45;;;7.90;;
13173;SDS011;6652;48.802;9.190;2023-02-28T09:07:13;18.98;;;9.23;;
13173;SDS011;6652;48.802;9.190;2023-02-28T09:09:39;14.40;;;7.97;;
13173;SDS011;6652;48.802;9.190;2023-02-28T09:12:18;19.60;;;9.35;;
13173;SDS011;6652;48.802;9.190;2023-02-28T09:14:46;15.98;;;8.90;;
13173;SDS011;6652;48.802;9.190;2023-02-28T09:17:13;15.23;;;9.45;;
13173;SDS011;6652;48.802;9.190;2023-02-28T09:19:40;15.23;;;8.43;;
13173;SDS011;6652;48.802;9.190;2023-02-28T09:22:07;18.40;;;9.40;;
13173;SDS011;6652;48.802;9.190;2023-02-28T09:24:35;16.92;;;8.35;;
13173;SDS011;6652;48.802;9.190;2023-02-28T09:27:02;22.05;;;8.60;;
13173;SDS011;6652;48.802;9.190;2023-02-28T09:29:29;14.93;;;9.02;;
13173;SDS011;6652;48.802;9.190;2023-02-28T09:31:57;12.93;;;7.55;;
13173;SDS011;6652;48.802;9.190;2023-02-28T09:34:26;19.08;;;8.45;;
13173;SDS011;6652;48.802;9.190;2023-02-28T09:37:09;16.08;;;8.30;;
13173;SDS011;6652;48.802;9.190;2023-02-28T09:39:39;27.95;;;8.88;;
13173;SDS011;6652;48.802;9.190;2023-02-28T09:42:18;14.65;;;8.85;;
13173;SDS011;6652;48.802;9.190;2023-02-28T09:45:13;16.08;;;8.52;;
13173;SDS011;6652;48.802;9.190;2023-02-28T09:47:58;15.05;;;8.57;;
13173;SDS011;6652;48.802;9.190;2023-02-28T09:50:30;16.33;;;8.60;;
13173;SDS011;6652;48.802;9.190;2023-02-28T09:53:01;16.90;;;9.10;;
13173;SDS011;6652;48.802;9.190;2023-02-28T09:55:33;20.70;;;9.13;;
13173;SDS011;6652;48.802;9.190;2023-02-28T09:58:03;15.00;;;9.00;;
13173;SDS011;6652;48.802;9.190;2023-02-28T10:00:32;16.63;;;9.10;;
13173;SDS011;6652;48.802;9.190;2023-02-28T10:03:10;16.35;;;8.35;;
13173;SDS011;6652;48.802;9.190;2023-02-28T10:05:57;21.35;;;8.57;;
13173;SDS011;6652;48.802;9.190;2023-02-28T10:08:30;20.65;;;9.25;;
13173;SDS011;6652;48.802;9.190;2023-02-28T10:11:06;20.20;;;9.52;;
13173;SDS011;6652;48.802;9.190;2023-02-28T10:13:36;19.85;;;9.85;;
13173;SDS011;6652;48.802;9.190;2023-02-28T10:16:11;13.55;;;8.20;;
13173;SDS011;6652;48.802;9.190;2023-02-28T10:18:46;15.13;;;8.23;;
13173;SDS011;6652;48.802;9.190;2023-02-28T10:21:17;16.95;;;10.02;;
13173;SDS011;6652;48.802;9.190;2023-02-28T10:23:49;15.75;;;9.35;;
13173;SDS011;6652;48.802;9.190;2023-02-28T10:26:24;16.33;;;8.63;;
13173;SDS011;6652;48.802;9.190;2023-02-28T10:28:54;16.27;;;9.30;;
13173;SDS011;6652;48.802;9.190;2023-02-28T10:31:21;15.75;;;8.80;;
13173;SDS011;6652;48.802;9.190;2023-02-28T10:33:49;16.10;;;9.10;;
13173;SDS011;6652;48.802;9.190;2023-02-28T10:36:17;15.40;;;8.48;;
13173;SDS011;6652;48.802;9.190;2023-02-28T10:38:46;15.55;;;9.23;;
13173;SDS011;6652;48.802;9.190;2023-02-28T10:41:14;16.15;;;9.32;;
13173;SDS011;6652;48.802;9.190;2023-02-28T10:43:42;17.13;;;9.98;;
13173;SDS011;6652;48.802;9.190;2023-02-28T10:46:11;16.75;;;8.90;;
13173;SDS011;6652;48.802;9.190;2023-02-28T10:48:59;14.30;;;8.85;;
13173;SDS011;6652;48.802;9.190;2023-02-28T10:51:34;17.98;;;9.45;;
13173;SDS011;6652;48.802;9.190;2023-02-28T10:54:02;15.40;;;8.77;;
13173;SDS011;6652;48.802;9.190;2023-02-28T10:56:30;18.70;;;9.60;;
13173;SDS011;6652;48.802;9.190;2023-02-28T10:58:58;16.40;;;9.98;;
13173;SDS011;6652;48.802;9.190;2023-02-28T11:01:34;12.70;;;8.68;;
13173;SDS011;6652;48.802;9.190;2023-02-28T11:04:17;14.57;;;8.73;;
13173;SDS011;6652;48.802;9.190;2023-02-28T11:06:46;15.23;;;8.95;;
13173;SDS011;6652;48.802;9.190;2023-02-28T11:09:18;13.63;;;8.75;;
13173;SDS011;6652;48.802;9.190;2023-02-28T11:11:49;12.57;;;8.55;;
13173;SDS011;6652;48.802;9.190;2023-02-28T11:14:19;16.52;;;8.95;;
13173;SDS011;6652;48.802;9.190;2023-02-28T11:16:48;13.52;;;9.13;;
13173;SDS011;6652;48.802;9.190;2023-02-28T11:19:19;14.82;;;8.77;;
13173;SDS011;6652;48.802;9.190;2023-02-28T11:21:51;17.42;;;9.52;;
13173;SDS011;6652;48.802;9.190;2023-02-28T11:24:22;14.60;;;8.90;;
13173;SDS011;6652;48.802;9.190;2023-02-28T11:26:50;27.92;;;10.82;;
13173;SDS011;6652;48.802;9.190;2023-02-28T11:29:19;14.00;;;9.07;;
13173;SDS011;6652;48.802;9.190;2023-02-28T11:32:00;16.80;;;9.27;;
13173;SDS011;6652;48.802;9.190;2023-02-28T11:34:31;15.43;;;9.82;;
13173;SDS011;6652;48.802;9.190;2023-02-28T11:36:59;19.58;;;9.40;;
13173;SDS011;6652;48.802;9.190;2023-02-28T11:39:29;12.70;;;8.35;;
13173;SDS011;6652;48.802;9.190;2023-02-28T11:42:10;13.32;;;8.48;;
13173;SDS011;6652;48.802;9.190;2023-02-28T11:44:53;20.15;;;9.38;;
13173;SDS011;6652;48.802;9.190;2023-02-28T11:47:31;14.38;;;8.55;;
13173;SDS011;6652;48.802;9.190;2023-02-28T11:50:14;17.05;;;8.77;;
13173;SDS011;6652;48.802;9.190;2023-02-28T11:52:48;14.95;;;9.43;;
13173;SDS011;6652;48.802;9.190;2023-02-28T11:55:19;15.40;;;9.32;;
13173;SDS011;6652;48.802;9.190;2023-02-28T11:58:14;14.20;;;9.00;;
13173;SDS011;6652;48.802;9.190;2023-02-28T12:00:55;17.50;;;9.38;;
13173;SDS011;6652;48.802;9.190;2023-02-28T12:03:31;14.43;;;8.73;;
13173;SDS011;6652;48.802;9.190;2023-02-28T12:06:13;16.25;;;9.20;;
13173;SDS011;6652;48.802;9.190;2023-02-28T12:08:52;17.70;;;8.43;;
13173;SDS011;6652;48.802;9.190;2023-02-28T12:11:33;13.85;;;8.88;;
13173;SDS011;6652;48.802;9.190;2023-02-28T12:14:16;14.10;;;8.60;;
13173;SDS011;6652;48.802;9.190;2023-02-28T12:17:16;15.90;;;9.73;;
13173;SDS011;6652;48.802;9.190;2023-02-28T12:19:58;15.73;;;9.10;;
13173;SDS011;6652;48.802;9.190;2023-02-28T12:22:34;17.20;;;8.57;;
13173;SDS011;6652;48.802;9.190;2023-02-28T12:25:15;18.17;;;8.40;;
13173;SDS011;6652;48.802;9.190;2023-02-28T12:28:01;15.80;;;9.45;;
13173;SDS011;6652;48.802;9.190;2023-02-28T12:30:29;14.27;;;8.38;;
13173;SDS011;6652;48.802;9.190;2023-02-28T12:33:01;16.02;;;9.35;;
13173;SDS011;6652;48.802;9.190;2023-02-28T12:38:03;15.00;;;8.30;;
13173;SDS011;6652;48.802;9.190;2023-02-28T12:40:40;13.45;;;7.95;;
13173;SDS011;6652;48.802;9.190;2023-02-28T12:43:11;16.15;;;9.00;;
13173;SDS011;6652;48.802;9.190;2023-02-28T12:45:42;14.52;;;8.57;;
13173;SDS011;6652;48.802;9.190;2023-02-28T12:48:14;16.05;;;8.07;;
13173;SDS011;6652;48.802;9.190;2023-02-28T12:50:44;16.42;;;9.55;;
13173;SDS011;6652;48.802;9.190;2023-02-28T12:53:15;14.48;;;8.77;;
13173;SDS011;6652;48.802;9.190;2023-02-28T12:55:54;12.57;;;8.57;;
13173;SDS011;6652;48.802;9.190;2023-02-28T12:58:31;14.68;;;8.63;;
13173;SDS011;6652;48.802;9.190;2023-02-28T13:07:00;14.80;;;8.52;;
13173;SDS011;6652;48.802;9.190;2023-02-28T13:12:32;13.48;;;8.95;;
13173;SDS011;6652;48.802;9.190;2023-02-28T13:15:02;14.05;;;8.90;;
13173;SDS011;6652;48.802;9.190;2023-02-28T13:17:36;12.63;;;8.32;;
13173;SDS011;6652;48.802;9.190;2023-02-28T13:20:13;16.17;;;9.60;;
13173;SDS011;6652;48.802;9.190;2023-02-28T13:22:42;14.43;;;8.13;;
13173;SDS011;6652;48.802;9.190;2023-02-28T13:31:33;19.08;;;8.77;;
13173;SDS011;6652;48.802;9.190;2023-02-28T13:34:39;18.33;;;9.07;;
13173;SDS011;6652;48.802;9.190;2023-02-28T13:40:00;12.40;;;8.57;;
13173;SDS011;6652;48.802;9.190;2023-02-28T13:42:52;14.40;;;8.50;;
13173;SDS011;6652;48.802;9.190;2023-02-28T13:45:20;16.00;;;8.90;;
13173;SDS011;6652;48.802;9.190;2023-02-28T13:47:53;17.35;;;8.73;;
13173;SDS011;6652;48.802;9.190;2023-02-28T13:50:24;16.35;;;8.43;;
13173;SDS011;6652;48.802;9.190;2023-02-28T13:53:11;13.45;;;8.30;;
13173;SDS011;6652;48.802;9.190;2023-02-28T13:56:00;15.82;;;8.80;;
13173;SDS011;6652;48.802;9.190;2023-02-28T13:58:36;15.68;;;8.40;;
13173;SDS011;6652;48.802;9.190;2023-02-28T14:01:16;12.30;;;7.50;;
13173;SDS011;6652;48.802;9.190;2023-02-28T14:06:58;12.93;;;7.95;;
13173;SDS011;6652;48.802;9.190;2023-02-28T14:09:27;15.20;;;8.38;;
13173;SDS011;6652;48.802;9.190;2023-02-28T14:11:58;10.48;;;7.40;;
13173;SDS011;6652;48.802;9.190;2023-02-28T14:15:18;13.45;;;8.43;;
13173;SDS011;6652;48.802;9.190;2023-02-28T14:17:53;11.25;;;7.32;;
13173;SDS011;6652;48.802;9.190;2023-02-28T14:20:25;19.75;;;9.82;;
13173;SDS011;6652;48.802;9.190;2023-02-28T14:23:00;14.38;;;7.85;;
13173;SDS011;6652;48.802;9.190;2023-02-28T14:25:37;11.35;;;7.43;;
13173;SDS011;6652;48.802;9.190;2023-02-28T14:28:11;14.98;;;7.15;;
13173;SDS011;6652;48.802;9.190;2023-02-28T14:30:51;25.48;;;8.65;;
13173;SDS011;6652;48.802;9.190;2023-02-28T14:33:31;12.90;;;7.90;;
13173;SDS011;6652;48.802;9.190;2023-02-28T14:36:12;23.10;;;8.50;;
13173;SDS011;6652;48.802;9.190;2023-02-28T14:38:46;15.75;;;8.10;;
13173;SDS011;6652;48.802;9.190;2023-02-28T14:41:22;15.30;;;8.25;;
13173;SDS011;6652;48.802;9.190;2023-02-28T14:43:53;15.68;;;8.98;;
13173;SDS011;6652;48.802;9.190;2023-02-28T14:46:28;14.63;;;7.97;;
13173;SDS011;6652;48.802;9.190;2023-02-28T14:49:02;17.58;;;9.10;;
13173;SDS011;6652;48.802;9.190;2023-02-28T14:51:44;13.00;;;8.88;;
13173;SDS011;6652;48.802;9.190;2023-02-28T14:54:18;17.25;;;8.65;;
13173;SDS011;6652;48.802;9.190;2023-02-28T14:56:49;18.20;;;9.32;;
13173;SDS011;6652;48.802;9.190;2023-02-28T14:59:23;13.77;;;8.75;;
13173;SDS011;6652;48.802;9.190;2023-02-28T15:01:52;17.42;;;8.68;;
13173;SDS011;6652;48.802;9.190;2023-02-28T15:04:33;12.77;;;8.55;;
13173;SDS011;6652;48.802;9.190;2023-02-28T15:07:06;15.48;;;8.10;;
13173;SDS011;6652;48.802;9.190;2023-02-28T15:09:35;12.45;;;8.70;;
13173;SDS011;6652;48.802;9.190;2023-02-28T15:12:02;17.85;;;9.00;;
13173;SDS011;6652;48.802;9.190;2023-02-28T15:14:29;15.88;;;9.20;;
13173;SDS011;6652;48.802;9.190;2023-02-28T15:16:57;15.27;;;8.50;;
13173;SDS011;6652;48.802;9.190;2023-02-28T15:19:28;13.15;;;8.35;;
13173;SDS011;6652;48.802;9.190;2023-02-28T15:21:57;18.48;;;8.38;;
13173;SDS011;6652;48.802;9.190;2023-02-28T15:24:36;13.10;;;8.70;;
13173;SDS011;6652;48.802;9.190;2023-02-28T15:27:07;18.00;;;8.73;;
13173;SDS011;6652;48.802;9.190;2023-02-28T15:29:42;18.95;;;9.18;;
13173;SDS011;6652;48.802;9.190;2023-02-28T15:32:21;14.40;;;8.57;;
13173;SDS011;6652;48.802;9.190;2023-02-28T15:34:52;16.70;;;9.32;;
13173;SDS011;6652;48.802;9.190;2023-02-28T15:37:30;17.30;;;8.98;;
13173;SDS011;6652;48.802;9.190;2023-02-28T15:40:12;15.68;;;8.65;;
13173;SDS011;6652;48.802;9.190;2023-02-28T15:42:41;15.95;;;9.23;;
13173;SDS011;6652;48.802;9.190;2023-02-28T15:47:56;14.07;;;9.00;;